createdAt,value
2023-02-19T20:38:26.041Z,7.93
2023-02-19T20:43:22.236Z,7.97
2023-02-19T20:48:29.237Z,7.51
2023-02-19T20:53:35.405Z,7.36
2023-02-19T20:58:41.777Z,7.90
2023-02-19T21:03:48.028Z,10.23
2023-02-19T21:08:54.441Z,8.17
2023-02-19T21:14:00.754Z,8.50
2023-02-19T21:19:07.055Z,7.27
2023-02-19T21:24:13.318Z,6.20
2023-02-19T21:29:19.743Z,5.41
2023-02-19T21:34:25.948Z,5.88
2023-02-19T21:39:32.499Z,5.72
2023-02-19T21:44:38.761Z,5.55
2023-02-19T21:49:46.100Z,5.89
2023-02-19T21:54:52.411Z,5.28
2023-02-19T21:59:58.748Z,5.23
2023-02-19T22:05:04.913Z,5.68
2023-02-19T22:10:11.284Z,7.26
2023-02-19T22:15:17.527Z,4.62
2023-02-19T22:20:24.038Z,4.63
2023-02-19T22:25:30.335Z,5.36
2023-02-19T22:30:36.998Z,4.37
2023-02-19T22:35:43.136Z,4.66
2023-02-19T22:40:49.450Z,4.84
2023-02-19T22:45:55.784Z,4.33
2023-02-19T22:51:02.309Z,4.21
2023-02-19T22:56:08.689Z,3.81
2023-02-19T23:01:15.067Z,4.35
2023-02-19T23:06:21.143Z,3.41
2023-02-19T23:11:27.836Z,4.72
2023-02-19T23:16:34.037Z,3.89
2023-02-19T23:21:40.511Z,4.04
2023-02-19T23:26:46.685Z,4.35
2023-02-19T23:31:53.287Z,4.63
2023-02-19T23:36:59.348Z,4.90
2023-02-19T23:42:06.040Z,5.12
2023-02-19T23:47:12.352Z,5.64
2023-02-19T23:52:18.895Z,6.90
2023-02-19T23:57:25.063Z,7.16
